Time;durP1;ratioP1;P1;durP2;ratioP2;P2;SDS_P1;SDS_P2;PMS_P1;PMS_P2;Temp;Humidity;BMP_temperature;BMP_pressure;BME280_temperature;BME280_humidity;BME280_pressure;Samples;Min_cycle;Max_cycle;Signal;HPM_P1;HPM_P2
2023/01/16 00:01:30;;;;;;;1.67;1.40;;;;;;;4.06;100.00;98107.41;4985773;28;20087;-66
2023/01/16 00:04:14;;;;;;;2.70;1.45;;;;;;;3.93;100.00;98115.00;4987565;28;20041;-66
2023/01/16 00:06:59;;;;;;;2.40;1.27;;;;;;;3.99;100.00;98100.91;5014582;28;20044;-65
2023/01/16 00:09:45;;;;;;;2.90;1.75;;;;;;;3.97;100.00;98107.06;5014047;28;20050;-65
2023/01/16 00:12:30;;;;;;;2.13;1.52;;;;;;;4.00;100.00;98104.34;4999080;28;20043;-65
2023/01/16 00:15:15;;;;;;;1.98;1.77;;;;;;;3.94;100.00;98095.09;5001414;28;20034;-65
2023/01/16 00:18:00;;;;;;;2.38;1.88;;;;;;;4.03;100.00;98086.03;5012831;28;20393;-65
2023/01/16 00:20:46;;;;;;;1.95;1.58;;;;;;;3.80;100.00;98069.91;5015281;28;20041;-65
2023/01/16 00:23:33;;;;;;;1.65;1.40;;;;;;;3.70;100.00;98074.72;4986622;28;20049;-65
2023/01/16 00:26:17;;;;;;;2.75;1.95;;;;;;;3.70;100.00;98069.56;5012921;28;20140;-64
2023/01/16 00:29:02;;;;;;;1.77;1.60;;;;;;;3.78;100.00;98075.19;5011794;28;20117;-65
2023/01/16 00:31:47;;;;;;;2.17;1.70;;;;;;;3.79;100.00;98069.06;5012706;28;20112;-65
2023/01/16 00:34:31;;;;;;;2.10;1.25;;;;;;;3.74;100.00;98071.06;4972969;28;20444;-65
2023/01/16 00:37:16;;;;;;;2.15;1.30;;;;;;;3.74;100.00;98078.00;5015572;28;20045;-64
2023/01/16 00:40:00;;;;;;;1.42;1.10;;;;;;;3.78;100.00;98077.78;4985362;28;20048;-64
2023/01/16 00:42:45;;;;;;;1.90;1.40;;;;;;;3.75;100.00;98074.50;4995116;28;20058;-65
2023/01/16 00:45:30;;;;;;;1.90;1.40;;;;;;;3.77;100.00;98073.47;4989143;28;20033;-65
2023/01/16 00:48:15;;;;;;;1.83;1.20;;;;;;;3.72;100.00;98072.88;5012909;28;20092;-66
2023/01/16 00:51:00;;;;;;;1.52;0.90;;;;;;;3.67;100.00;98067.94;4998176;28;20125;-64
2023/01/16 00:53:44;;;;;;;1.83;1.27;;;;;;;3.63;100.00;98063.00;5014902;28;20045;-63
2023/01/16 00:56:29;;;;;;;2.25;1.00;;;;;;;3.64;100.00;98056.91;5003457;28;20033;-64
2023/01/16 00:59:14;;;;;;;1.25;1.15;;;;;;;3.69;100.00;98049.72;5015186;28;20038;-65
2023/01/16 01:01:59;;;;;;;1.05;0.90;;;;;;;3.65;100.00;98045.63;5013271;28;20133;-64
2023/01/16 01:04:43;;;;;;;1.25;0.80;;;;;;;3.53;100.00;98041.91;5013911;28;20056;-65
2023/01/16 01:12:08;;;;;;;0.90;0.70;;;;;;;3.55;100.00;98038.34;4994748;28;20038;-66
2023/01/16 01:14:53;;;;;;;1.27;0.88;;;;;;;3.70;100.00;98030.69;4995356;28;20053;-64
2023/01/16 01:17:38;;;;;;;1.52;1.20;;;;;;;3.69;100.00;98034.19;4980121;28;20042;-65
2023/01/16 01:20:22;;;;;;;1.33;0.80;;;;;;;3.61;100.00;98026.00;5000190;28;20061;-65
2023/01/16 01:23:07;;;;;;;1.60;1.50;;;;;;;3.55;100.00;98024.53;5010803;28;20168;-65
2023/01/16 01:25:52;;;;;;;0.90;0.80;;;;;;;3.54;100.00;98007.34;5013747;28;20068;-65
2023/01/16 01:28:37;;;;;;;0.98;0.60;;;;;;;3.49;100.00;98006.72;5012775;28;20117;-65
2023/01/16 01:31:21;;;;;;;1.13;0.75;;;;;;;3.51;100.00;98004.91;4999722;28;20054;-65
2023/01/16 01:34:06;;;;;;;1.65;1.55;;;;;;;3.66;100.00;98009.28;4999213;28;20204;-64
2023/01/16 01:36:50;;;;;;;2.30;1.60;;;;;;;3.78;100.00;98004.38;5012209;28;20416;-63
2023/01/16 01:44:00;;;;;;;1.42;1.33;;;;;;;3.83;100.00;97997.19;5014067;28;20037;-65
2023/01/16 01:46:46;;;;;;;2.58;2.03;;;;;;;3.86;100.00;97998.78;4983854;28;20156;-66
2023/01/16 01:49:31;;;;;;;2.50;1.88;;;;;;;3.85;100.00;97999.69;4996874;28;20045;-64
2023/01/16 01:52:20;;;;;;;0.77;0.60;;;;;;;3.92;100.00;97994.09;4996964;28;20097;-64
2023/01/16 01:55:08;;;;;;;2.35;2.15;;;;;;;4.00;100.00;98005.84;4999748;28;20121;-65
2023/01/16 01:57:56;;;;;;;2.25;1.92;;;;;;;4.06;100.00;98002.91;5012093;28;20038;-65
2023/01/16 02:00:41;;;;;;;1.52;1.30;;;;;;;4.03;100.00;98003.06;4999395;28;20042;-65
2023/01/16 02:03:45;;;;;;;3.22;2.45;;;;;;;4.01;100.00;98003.16;5013888;28;20049;-64
2023/01/16 02:06:44;;;;;;;1.70;1.45;;;;;;;4.09;100.00;98000.13;5014343;28;20107;-65
2023/01/16 02:09:28;;;;;;;2.22;2.03;;;;;;;4.01;100.00;98003.16;5002842;28;20038;-66
2023/01/16 02:12:16;;;;;;;1.95;1.70;;;;;;;4.07;100.00;97989.84;4994487;28;20493;-65
2023/01/16 02:15:01;;;;;;;1.58;1.38;;;;;;;3.96;100.00;97992.19;5009326;28;20065;-65
2023/01/16 02:21:08;;;;;;;2.40;1.85;;;;;;;3.97;100.00;97974.88;5012622;28;20381;-65
2023/01/16 02:24:05;;;;;;;1.33;0.90;;;;;;;3.98;100.00;97969.63;5010876;28;20500;-64
2023/01/16 02:26:53;;;;;;;2.10;1.92;;;;;;;4.02;100.00;97967.69;4998049;28;20489;-65
2023/01/16 02:30:05;;;;;;;1.73;1.63;;;;;;;4.09;100.00;97963.00;4997457;28;20045;-64
2023/01/16 02:33:09;;;;;;;2.45;2.13;;;;;;;4.07;100.00;97958.75;4996971;28;20516;-66
2023/01/16 02:35:57;;;;;;;2.58;2.38;;;;;;;4.11;100.00;97955.97;5014240;28;20053;-64
2023/01/16 02:39:13;;;;;;;1.42;1.08;;;;;;;4.11;100.00;97948.22;5013566;28;20049;-65
2023/01/16 02:42:24;;;;;;;3.63;2.15;;;;;;;4.10;100.00;97941.34;4998409;28;20113;-64
2023/01/16 02:45:26;;;;;;;2.25;1.90;;;;;;;3.97;100.00;97935.97;5013765;28;20037;-64
2023/01/16 02:48:26;;;;;;;2.30;1.77;;;;;;;3.75;100.00;97942.34;4985052;28;20393;-64
2023/01/16 02:51:44;;;;;;;2.63;1.83;;;;;;;3.70;100.00;97929.66;5012010;28;20045;-64
2023/01/16 02:54:45;;;;;;;2.08;1.70;;;;;;;3.55;100.00;97928.69;4995509;28;20044;-68
2023/01/16 02:57:36;;;;;;;2.80;1.90;;;;;;;3.48;100.00;97914.41;4998074;28;20045;-64
2023/01/16 03:00:21;;;;;;;2.90;1.60;;;;;;;3.58;100.00;97918.16;5013946;28;20512;-61
2023/01/16 03:03:37;;;;;;;2.20;1.60;;;;;;;3.62;100.00;97913.66;5014160;28;20065;-65
2023/01/16 03:06:44;;;;;;;2.28;1.98;;;;;;;3.52;100.00;97911.59;5008425;28;20480;-65
2023/01/16 03:09:56;;;;;;;2.37;2.00;;;;;;;3.66;100.00;97912.56;4996680;28;20466;-65
2023/01/16 03:12:56;;;;;;;2.40;1.85;;;;;;;3.83;100.00;97919.44;4999170;28;20296;-65
2023/01/16 03:16:14;;;;;;;2.70;2.08;;;;;;;3.91;100.00;97914.69;5013642;28;20070;-65
2023/01/16 03:19:37;;;;;;;2.28;1.80;;;;;;;3.98;100.00;97912.59;5011422;28;20048;-65
2023/01/16 03:22:47;;;;;;;2.72;2.35;;;;;;;4.04;100.00;97906.22;5013096;28;20069;-65
2023/01/16 03:25:32;;;;;;;2.35;1.80;;;;;;;4.10;100.00;97903.28;5010539;28;20991;-65
2023/01/16 03:28:50;;;;;;;3.42;2.13;;;;;;;4.13;100.00;97905.72;5014761;28;20048;-65
2023/01/16 03:31:52;;;;;;;2.80;2.42;;;;;;;4.19;100.00;97905.34;5000378;28;20483;-65
2023/01/16 03:35:01;;;;;;;1.52;1.25;;;;;;;4.12;100.00;97898.00;4997105;28;20176;-65
2023/01/16 03:38:05;;;;;;;2.90;1.98;;;;;;;4.04;100.00;97893.25;4999257;28;20034;-66
2023/01/16 03:40:52;;;;;;;2.25;1.90;;;;;;;4.08;100.00;97897.34;4999803;28;20049;-64
2023/01/16 03:43:38;;;;;;;2.30;2.08;;;;;;;4.07;100.00;97893.09;5016602;28;20456;-64
2023/01/16 03:46:29;;;;;;;3.28;2.17;;;;;;;4.12;100.00;97890.25;5016472;28;20060;-64
2023/01/16 03:49:20;;;;;;;2.00;1.70;;;;;;;4.21;100.00;97883.72;5016474;28;20046;-64
2023/01/16 03:52:11;;;;;;;2.38;1.83;;;;;;;4.10;100.00;97881.72;5015352;28;20112;-64
2023/01/16 03:55:05;;;;;;;2.35;1.90;;;;;;;4.17;100.00;97877.84;5014156;28;20477;-65
2023/01/16 03:58:02;;;;;;;2.83;1.75;;;;;;;4.13;100.00;97869.41;5013525;28;20046;-67
2023/01/16 04:00:55;;;;;;;2.22;1.63;;;;;;;4.18;100.00;97867.41;5011069;28;20046;-65
2023/01/16 04:03:48;;;;;;;3.08;2.30;;;;;;;4.24;100.00;97865.38;5013842;28;20137;-65
2023/01/16 04:06:49;;;;;;;2.10;1.75;;;;;;;4.19;100.00;97858.69;5015491;28;20052;-66
2023/01/16 04:09:37;;;;;;;3.13;1.70;;;;;;;4.19;100.00;97853.50;5013894;28;20042;-65
2023/01/16 04:12:28;;;;;;;1.90;1.70;;;;;;;4.08;100.00;97845.50;5013861;28;20481;-65
2023/01/16 04:15:13;;;;;;;2.55;2.00;;;;;;;4.03;100.00;97834.56;5012521;28;20119;-64
2023/01/16 04:17:58;;;;;;;3.63;2.00;;;;;;;4.21;100.00;97832.66;5001315;28;20088;-68
2023/01/16 04:20:46;;;;;;;2.35;1.90;;;;;;;4.13;100.00;97827.13;5001149;28;20034;-71
2023/01/16 04:23:30;;;;;;;2.60;1.80;;;;;;;4.12;100.00;97825.44;5016046;28;20084;-69
2023/01/16 04:26:16;;;;;;;3.25;2.05;;;;;;;4.12;100.00;97831.47;5016043;28;20045;-69
2023/01/16 04:29:01;;;;;;;2.28;1.80;;;;;;;4.26;100.00;97825.47;4997440;28;20042;-69
2023/01/16 04:31:46;;;;;;;2.42;1.70;;;;;;;4.16;100.00;97822.56;5013515;28;20074;-69
2023/01/16 04:34:31;;;;;;;2.38;1.98;;;;;;;4.09;100.00;97818.66;4988680;28;20496;-68
2023/01/16 04:37:17;;;;;;;2.85;1.83;;;;;;;4.09;100.00;97817.81;5013373;28;20080;-69
2023/01/16 04:40:03;;;;;;;3.80;2.03;;;;;;;4.09;100.00;97810.06;4987864;28;20041;-69
2023/01/16 04:42:48;;;;;;;2.75;2.05;;;;;;;4.18;100.00;97812.09;5012661;28;20089;-69
2023/01/16 04:45:33;;;;;;;2.15;1.67;;;;;;;4.22;100.00;97811.03;4992230;28;20058;-70
2023/01/16 04:48:17;;;;;;;2.28;1.60;;;;;;;4.21;100.00;97806.75;4997112;28;20042;-71
2023/01/16 04:51:02;;;;;;;2.50;2.00;;;;;;;4.23;100.00;97804.09;5012320;28;20073;-71
2023/01/16 04:53:47;;;;;;;2.33;1.83;;;;;;;4.30;100.00;97814.00;5010826;28;20064;-70
2023/01/16 04:56:56;;;;;;;2.00;1.80;;;;;;;4.36;100.00;97812.81;5012466;28;20045;-70
2023/01/16 04:59:41;;;;;;;2.38;1.92;;;;;;;4.35;100.00;97802.53;5012206;28;20492;-70
2023/01/16 05:02:27;;;;;;;2.28;1.90;;;;;;;4.40;100.00;97797.91;5005799;28;20041;-70
2023/01/16 05:05:11;;;;;;;2.17;1.38;;;;;;;4.35;100.00;97799.94;5012094;28;20149;-68
2023/01/16 05:11:01;;;;;;;2.63;1.42;;;;;;;4.39;100.00;97793.66;5009009;28;20042;-70
2023/01/16 05:13:46;;;;;;;4.22;2.35;;;;;;;4.37;100.00;97793.75;5012596;28;20041;-69
2023/01/16 05:16:30;;;;;;;4.97;3.03;;;;;;;4.41;100.00;97797.81;5011496;28;20037;-71
2023/01/16 05:19:15;;;;;;;2.05;1.55;;;;;;;4.42;100.00;97801.25;5012461;28;20110;-67
2023/01/16 05:21:59;;;;;;;2.38;1.52;;;;;;;4.34;100.00;97793.09;5014006;28;20052;-66
2023/01/16 05:24:44;;;;;;;2.70;1.60;;;;;;;4.29;100.00;97801.94;4999496;28;20172;-66
2023/01/16 05:27:29;;;;;;;2.17;1.40;;;;;;;4.30;100.00;97803.63;4999213;28;20045;-66
2023/01/16 05:30:14;;;;;;;2.45;1.52;;;;;;;4.30;100.00;97802.78;4999747;28;20040;-67
2023/01/16 05:32:58;;;;;;;2.97;1.80;;;;;;;4.29;100.00;97793.34;4999186;28;20045;-67
2023/01/16 05:35:45;;;;;;;1.88;1.38;;;;;;;4.70;100.00;97791.81;5014027;28;20488;-64
2023/01/16 05:38:30;;;;;;;2.67;1.75;;;;;;;5.03;100.00;97790.69;5014352;28;20042;-65
2023/01/16 05:41:14;;;;;;;3.95;1.70;;;;;;;5.07;100.00;97790.50;4999043;28;20044;-67
2023/01/16 05:43:59;;;;;;;3.45;1.45;;;;;;;4.98;100.00;97792.75;5014514;28;20432;-71
2023/01/16 05:46:44;;;;;;;1.90;1.42;;;;;;;4.96;100.00;97792.00;5011282;28;20412;-67
2023/01/16 05:49:28;;;;;;;11.02;3.78;;;;;;;5.02;100.00;97791.66;5012122;28;20038;-59
2023/01/16 05:52:13;;;;;;;8.27;3.45;;;;;;;5.37;100.00;97786.97;4985289;28;20386;-66
2023/01/16 05:54:57;;;;;;;5.88;2.97;;;;;;;5.16;100.00;97787.34;5013890;28;20038;-64
2023/01/16 05:57:42;;;;;;;6.85;2.42;;;;;;;5.01;100.00;97787.34;5012092;28;20079;-65
2023/01/16 06:00:27;;;;;;;3.28;2.20;;;;;;;4.83;100.00;97783.31;4984924;28;20477;-65
2023/01/16 06:03:12;;;;;;;2.80;1.83;;;;;;;4.76;100.00;97773.31;4998821;28;20046;-68
2023/01/16 06:05:58;;;;;;;2.53;1.50;;;;;;;4.62;100.00;97768.91;4998540;28;20046;-69
2023/01/16 06:08:43;;;;;;;5.00;1.83;;;;;;;4.68;100.00;97759.94;5012268;28;20042;-68
2023/01/16 06:11:27;;;;;;;3.28;1.67;;;;;;;4.77;100.00;97755.94;5007123;28;20041;-68
2023/01/16 06:14:12;;;;;;;2.60;1.65;;;;;;;4.71;100.00;97754.56;4982842;28;20048;-68
2023/01/16 06:16:58;;;;;;;5.10;1.63;;;;;;;4.54;100.00;97752.97;5001085;28;20076;-68
2023/01/16 06:19:44;;;;;;;2.65;1.40;;;;;;;4.57;100.00;97752.78;5012294;28;20102;-68
2023/01/16 06:22:28;;;;;;;1.90;1.30;;;;;;;4.67;100.00;97738.34;5011378;28;20059;-68
2023/01/16 06:25:12;;;;;;;3.95;1.30;;;;;;;4.67;100.00;97734.91;5011689;28;20084;-69
2023/01/16 06:27:58;;;;;;;2.20;1.30;;;;;;;4.72;100.00;97734.66;4973172;28;20108;-69
2023/01/16 06:30:44;;;;;;;2.25;1.02;;;;;;;4.42;94.88;97728.63;4999126;28;20033;-69
2023/01/16 06:33:28;;;;;;;1.15;1.00;;;;;;;4.37;99.89;97725.47;4970361;28;20044;-69
2023/01/16 06:36:13;;;;;;;1.58;0.95;;;;;;;4.47;100.00;97726.59;5010842;28;20034;-69
2023/01/16 06:38:59;;;;;;;1.90;1.27;;;;;;;4.52;100.00;97727.13;4987140;28;20444;-70
2023/01/16 06:41:44;;;;;;;2.72;1.20;;;;;;;4.54;99.31;97725.28;5011056;28;20037;-69
2023/01/16 06:44:29;;;;;;;2.50;1.20;;;;;;;4.50;100.00;97715.19;4995539;28;20037;-68
2023/01/16 06:47:15;;;;;;;2.45;2.00;;;;;;;4.38;100.00;97707.22;4985301;28;20042;-70
2023/01/16 06:50:00;;;;;;;2.78;1.58;;;;;;;4.36;100.00;97716.84;5012896;28;20045;-69
2023/01/16 06:52:47;;;;;;;2.72;1.25;;;;;;;4.49;100.00;97724.72;5010481;28;20129;-70
2023/01/16 06:55:32;;;;;;;2.33;1.50;;;;;;;4.40;100.00;97713.16;5010685;28;20042;-69
2023/01/16 06:58:17;;;;;;;2.45;1.83;;;;;;;4.36;100.00;97705.66;5011555;28;20103;-69
2023/01/16 07:01:02;;;;;;;2.22;1.50;;;;;;;4.33;100.00;97706.66;5011508;28;20042;-69
2023/01/16 07:03:47;;;;;;;2.20;1.58;;;;;;;4.27;100.00;97704.44;5015350;28;20377;-69
2023/01/16 07:06:33;;;;;;;3.22;1.45;;;;;;;4.22;99.88;97694.34;5012446;28;20057;-70
2023/01/16 07:09:18;;;;;;;1.40;1.10;;;;;;;4.24;99.34;97686.47;5014566;28;20108;-70
2023/01/16 07:12:04;;;;;;;1.30;0.80;;;;;;;4.27;95.16;97692.31;4999672;28;20361;-68
2023/01/16 07:24:05;;;;;;;2.78;1.55;;;;;;;4.06;95.55;97671.91;4999880;28;20052;-68
2023/01/16 07:26:57;;;;;;;1.85;0.70;;;;;;;4.12;97.08;97665.53;5013748;28;20033;-69
2023/01/16 07:29:42;;;;;;;1.80;0.85;;;;;;;4.03;95.99;97666.91;5001486;28;20050;-68
2023/01/16 07:32:27;;;;;;;1.15;0.65;;;;;;;4.04;96.42;97655.63;5014790;28;20046;-69
2023/01/16 07:35:11;;;;;;;1.73;1.05;;;;;;;4.12;92.83;97652.56;4995445;28;20462;-71
2023/01/16 07:37:58;;;;;;;1.40;0.95;;;;;;;4.25;95.06;97634.53;5000634;28;20100;-69
2023/01/16 07:40:43;;;;;;;1.67;1.23;;;;;;;4.32;96.41;97622.84;5014340;28;20199;-68
2023/01/16 07:43:27;;;;;;;1.42;0.90;;;;;;;4.42;95.05;97619.69;4997796;28;20065;-68
2023/01/16 07:46:12;;;;;;;1.05;0.70;;;;;;;4.46;93.67;97615.97;5014316;28;20049;-70
2023/01/16 07:48:58;;;;;;;1.27;1.00;;;;;;;4.31;94.08;97607.38;5014210;28;20061;-69
2023/01/16 07:51:42;;;;;;;2.83;1.00;;;;;;;4.32;95.44;97603.88;4999518;28;20038;-70
2023/01/16 07:54:27;;;;;;;3.67;1.30;;;;;;;4.34;95.00;97601.19;5015751;28;20046;-69
2023/01/16 07:57:12;;;;;;;2.22;1.00;;;;;;;4.21;94.17;97590.72;4999541;28;20037;-68
2023/01/16 07:59:56;;;;;;;1.70;0.95;;;;;;;4.29;93.72;97578.94;4999007;28;20041;-68
2023/01/16 08:02:42;;;;;;;1.45;1.05;;;;;;;4.17;93.77;97577.94;5014822;28;20044;-69
2023/01/16 08:05:28;;;;;;;1.60;1.00;;;;;;;4.36;93.55;97576.00;5013637;28;20050;-69
2023/01/16 08:08:12;;;;;;;1.50;1.00;;;;;;;4.22;92.82;97567.28;5014500;28;20086;-69
2023/01/16 08:10:59;;;;;;;2.63;1.42;;;;;;;4.23;95.29;97565.53;5013237;28;20080;-69
2023/01/16 08:13:44;;;;;;;2.40;1.33;;;;;;;4.35;95.48;97543.19;5012992;28;20067;-69
2023/01/16 08:16:28;;;;;;;1.92;1.13;;;;;;;4.44;94.12;97535.66;5013551;28;20112;-68
2023/01/16 08:19:13;;;;;;;6.30;2.85;;;;;;;4.40;94.69;97528.19;5013808;28;20053;-68
2023/01/16 08:21:58;;;;;;;1.50;0.90;;;;;;;4.38;93.99;97522.25;4998998;28;20099;-68
2023/01/16 08:24:43;;;;;;;2.60;1.40;;;;;;;4.36;92.76;97513.75;4995841;28;20378;-69
2023/01/16 08:27:27;;;;;;;2.38;1.45;;;;;;;4.44;92.90;97495.91;4993490;28;20449;-69
2023/01/16 08:30:14;;;;;;;2.97;1.02;;;;;;;4.48;92.05;97491.38;5013261;28;20132;-69
2023/01/16 08:33:01;;;;;;;3.42;1.88;;;;;;;4.54;92.22;97491.81;4999295;28;20096;-69
2023/01/16 08:35:45;;;;;;;2.35;1.00;;;;;;;4.54;93.71;97494.41;4998002;28;20042;-69
2023/01/16 08:38:31;;;;;;;1.98;1.10;;;;;;;4.54;93.06;97480.59;5013578;28;20037;-69
2023/01/16 08:53:30;;;;;;;4.03;2.42;;;;;;;3.97;93.50;97434.03;5014851;28;20098;-70
2023/01/16 08:56:15;;;;;;;3.47;2.50;;;;;;;3.94;93.51;97437.66;4999861;28;20492;-67
2023/01/16 08:59:00;;;;;;;3.45;2.60;;;;;;;4.06;94.59;97440.41;5013592;28;20481;-69
2023/01/16 09:01:44;;;;;;;4.05;3.00;;;;;;;4.07;95.62;97431.69;5012552;28;20116;-68
2023/01/16 09:04:29;;;;;;;5.28;3.85;;;;;;;4.10;97.81;97428.88;5013036;28;20054;-69
2023/01/16 09:07:15;;;;;;;4.63;3.40;;;;;;;4.07;98.07;97434.28;5012948;28;20457;-68
2023/01/16 09:09:59;;;;;;;2.95;2.45;;;;;;;3.77;97.92;97424.91;5013061;28;20149;-69
2023/01/16 09:15:49;;;;;;;3.38;1.60;;;;;;;3.39;98.07;97428.91;5014002;28;20041;-69
2023/01/16 09:18:34;;;;;;;2.92;1.48;;;;;;;3.41;98.78;97420.13;5014880;28;20057;-69
2023/01/16 09:21:19;;;;;;;3.33;1.77;;;;;;;3.50;98.49;97415.31;5015150;28;20073;-69
2023/01/16 09:24:19;;;;;;;3.28;1.70;;;;;;;3.40;100.00;97404.69;5074719;27;20874;-68
2023/01/16 09:27:05;;;;;;;3.20;2.00;;;;;;;3.49;100.00;97398.97;5069410;28;20033;-69
2023/01/16 09:29:50;;;;;;;2.85;1.77;;;;;;;3.66;100.00;97384.94;5068858;28;20204;-69
2023/01/16 09:32:35;;;;;;;3.38;2.38;;;;;;;3.37;100.00;97384.16;5068579;28;20438;-68
2023/01/16 09:35:19;;;;;;;3.72;2.03;;;;;;;3.48;100.00;97381.75;5067066;28;20048;-69
2023/01/16 09:38:05;;;;;;;4.13;2.15;;;;;;;3.51;100.00;97368.59;5068715;28;20049;-70
2023/01/16 09:40:56;;;;;;;4.05;2.25;;;;;;;3.51;100.00;97360.03;5068644;28;20460;-69
2023/01/16 09:43:46;;;;;;;4.45;2.58;;;;;;;3.39;100.00;97357.25;5079416;28;20048;-69
2023/01/16 09:46:38;;;;;;;4.00;2.30;;;;;;;3.45;100.00;97348.25;5082167;28;20117;-68
2023/01/16 09:49:36;;;;;;;5.03;2.17;;;;;;;3.61;100.00;97339.56;5088313;28;20115;-68
2023/01/16 09:59:00;;;;;;;3.53;2.20;;;;;;;3.43;100.00;97331.97;5069715;28;20035;-69
2023/01/16 10:01:52;;;;;;;3.45;2.40;;;;;;;3.12;100.00;97320.97;5069659;28;20036;-68
2023/01/16 10:04:36;;;;;;;4.28;2.30;;;;;;;3.41;100.00;97298.41;5067742;28;20046;-69
2023/01/16 10:07:43;;;;;;;3.15;2.10;;;;;;;3.30;100.00;97296.50;5090254;28;20135;-68
2023/01/16 10:10:42;;;;;;;2.80;2.05;;;;;;;3.38;100.00;97287.44;5087733;28;20139;-68
2023/01/16 10:13:59;;;;;;;2.80;2.15;;;;;;;3.20;100.00;97275.53;5089835;28;20120;-68
2023/01/16 10:17:10;;;;;;;2.63;1.88;;;;;;;3.38;100.00;97279.69;5021561;28;20045;-69
2023/01/16 10:19:59;;;;;;;1.98;1.30;;;;;;;3.29;100.00;97268.97;5051584;28;20083;-69
2023/01/16 10:23:08;;;;;;;2.92;1.80;;;;;;;3.30;100.00;97262.84;5067203;28;20056;-69
2023/01/16 10:26:19;;;;;;;2.53;1.30;;;;;;;3.31;100.00;97243.78;5047410;28;20469;-70
2023/01/16 10:29:21;;;;;;;2.00;1.20;;;;;;;3.44;100.00;97236.09;5019542;28;20037;-69
2023/01/16 10:32:18;;;;;;;2.85;1.13;;;;;;;3.31;100.00;97236.03;5062866;28;20040;-70
2023/01/16 10:35:12;;;;;;;1.65;1.15;;;;;;;3.26;100.00;97225.16;5044983;28;20073;-69
2023/01/16 10:38:12;;;;;;;2.50;1.13;;;;;;;3.13;100.00;97226.84;5037786;28;20064;-68
2023/01/16 10:40:59;;;;;;;1.55;1.10;;;;;;;3.43;100.00;97223.22;5043394;28;20049;-68
2023/01/16 10:50:02;;;;;;;2.50;0.90;;;;;;;3.36;100.00;97217.66;5051385;28;20041;-70
2023/01/16 10:52:48;;;;;;;2.13;1.05;;;;;;;3.62;100.00;97203.94;5042622;28;20044;-69
2023/01/16 10:55:48;;;;;;;2.28;0.95;;;;;;;3.45;100.00;97200.66;5074796;28;20060;-68
2023/01/16 10:58:36;;;;;;;1.98;1.27;;;;;;;3.65;100.00;97193.38;5074265;28;20044;-70
2023/01/16 11:01:25;;;;;;;2.60;1.33;;;;;;;3.55;100.00;97193.97;5063835;28;20037;-70
2023/01/16 11:04:11;;;;;;;2.22;1.23;;;;;;;3.45;100.00;97180.78;5082760;28;20041;-68
2023/01/16 11:07:12;;;;;;;2.30;1.17;;;;;;;3.41;100.00;97165.56;5053916;28;20441;-70
2023/01/16 11:09:57;;;;;;;2.22;1.17;;;;;;;3.48;100.00;97158.22;5073728;28;20040;-69
2023/01/16 11:19:20;;;;;;;2.63;1.02;;;;;;;3.33;100.00;97132.38;5052291;28;20049;-68
2023/01/16 11:22:22;;;;;;;2.10;1.20;;;;;;;3.31;100.00;97136.84;5061649;28;20036;-70
2023/01/16 11:25:20;;;;;;;2.47;1.10;;;;;;;3.37;100.00;97127.84;5067858;28;20044;-68
2023/01/16 11:28:11;;;;;;;2.17;1.35;;;;;;;3.28;100.00;97122.31;5056964;28;20040;-71
2023/01/16 11:31:02;;;;;;;1.85;1.00;;;;;;;3.14;100.00;97107.69;5057255;28;20142;-69
2023/01/16 11:33:54;;;;;;;3.78;1.20;;;;;;;3.30;100.00;97101.50;5055996;28;20045;-68
2023/01/16 11:36:41;;;;;;;2.15;1.20;;;;;;;3.34;100.00;97100.41;5075081;28;20048;-69
2023/01/16 11:39:35;;;;;;;2.65;1.27;;;;;;;3.39;100.00;97085.41;5073429;28;20194;-68
2023/01/16 11:48:50;;;;;;;3.55;1.40;;;;;;;3.36;100.00;97067.47;5039704;28;20049;-69
2023/01/16 11:51:37;;;;;;;1.85;1.05;;;;;;;3.43;100.00;97062.69;5059474;28;20143;-69
2023/01/16 11:54:28;;;;;;;2.50;1.70;;;;;;;3.45;100.00;97053.91;5072485;28;20058;-69
2023/01/16 11:57:15;;;;;;;3.37;1.40;;;;;;;3.31;100.00;97054.81;5060689;28;20510;-68
2023/01/16 12:00:16;;;;;;;2.75;1.25;;;;;;;3.55;100.00;97051.53;5054481;28;20120;-69
2023/01/16 12:03:28;;;;;;;2.95;1.38;;;;;;;3.45;100.00;97040.13;5065914;28;20451;-69
2023/01/16 12:06:46;;;;;;;3.63;1.40;;;;;;;3.37;100.00;97024.28;5044128;28;20577;-69
2023/01/16 12:09:36;;;;;;;2.50;1.50;;;;;;;3.31;100.00;97018.56;5065376;28;20066;-69
2023/01/16 12:15:49;;;;;;;2.17;1.25;;;;;;;3.33;100.00;97000.34;5072864;28;20145;-71
2023/01/16 12:18:47;;;;;;;3.00;1.40;;;;;;;3.36;100.00;96987.22;5070836;28;20044;-69
2023/01/16 12:21:48;;;;;;;3.95;1.73;;;;;;;3.21;100.00;96981.31;5058935;28;20059;-70
2023/01/16 12:24:43;;;;;;;3.30;1.58;;;;;;;3.15;100.00;96969.59;5072098;28;20033;-69
2023/01/16 12:27:33;;;;;;;3.38;1.73;;;;;;;3.14;100.00;96970.53;5054519;28;20133;-70
2023/01/16 12:30:22;;;;;;;2.80;1.52;;;;;;;3.24;100.00;96957.81;5057032;28;20042;-70
2023/01/16 12:33:26;;;;;;;1.90;1.45;;;;;;;3.30;100.00;96953.97;5053408;28;20384;-68
2023/01/16 12:36:22;;;;;;;4.47;1.88;;;;;;;3.23;100.00;96945.81;5053320;28;20075;-70
2023/01/16 12:39:34;;;;;;;3.05;1.83;;;;;;;3.12;100.00;96937.94;5064839;28;20040;-70
2023/01/16 12:46:01;;;;;;;2.40;1.60;;;;;;;2.77;100.00;96934.16;5049975;28;20128;-69
2023/01/16 12:48:46;;;;;;;3.53;1.83;;;;;;;2.74;100.00;96922.28;5050497;28;20136;-69
2023/01/16 12:52:05;;;;;;;4.72;2.25;;;;;;;2.76;100.00;96909.25;5051885;28;20057;-71
2023/01/16 12:55:05;;;;;;;4.28;2.03;;;;;;;2.60;100.00;96910.25;5049167;28;20048;-70
2023/01/16 12:57:50;;;;;;;3.58;2.17;;;;;;;2.66;100.00;96909.84;5033697;28;20045;-70
2023/01/16 13:01:09;;;;;;;4.13;2.33;;;;;;;2.81;100.00;96887.31;5049336;28;20052;-68
2023/01/16 13:04:11;;;;;;;4.05;2.40;;;;;;;2.86;100.00;96871.47;5043212;28;20389;-68
2023/01/16 13:06:56;;;;;;;;;;;;;;;2.79;100.00;96865.88;5049768;28;20043;-68
2023/01/16 13:09:49;;;;;;;9.35;3.72;;;;;;;2.70;100.00;96858.75;5049379;28;20310;-69
2023/01/16 13:15:43;;;;;;;4.50;3.30;;;;;;;2.88;100.00;96856.69;5031985;28;20052;-70
2023/01/16 13:18:42;;;;;;;6.38;3.40;;;;;;;2.58;100.00;96844.88;5049891;28;20128;-68
2023/01/16 13:22:06;;;;;;;7.93;3.92;;;;;;;2.32;100.00;96827.56;5064672;28;20098;-69
2023/01/16 13:25:26;;;;;;;6.82;4.40;;;;;;;2.28;100.00;96831.31;5069101;28;20127;-70
2023/01/16 13:28:35;;;;;;;6.88;3.85;;;;;;;2.58;100.00;96817.25;5042660;28;20053;-68
2023/01/16 13:31:24;;;;;;;6.78;4.57;;;;;;;2.50;100.00;96811.78;5049837;28;20072;-71
2023/01/16 13:34:25;;;;;;;8.27;5.00;;;;;;;2.52;100.00;96799.59;5036896;28;20083;-68
2023/01/16 13:37:49;;;;;;;9.60;5.60;;;;;;;2.55;100.00;96803.72;5042491;28;20562;-69
2023/01/16 13:40:50;;;;;;;7.80;5.10;;;;;;;2.37;100.00;96800.63;5033222;28;20036;-69
2023/01/16 13:47:11;;;;;;;13.45;6.47;;;;;;;2.31;100.00;96771.66;5018672;28;20116;-70
2023/01/16 13:50:12;;;;;;;11.13;6.20;;;;;;;2.28;100.00;96771.03;5029574;28;20132;-68
2023/01/16 13:53:02;;;;;;;11.23;6.43;;;;;;;2.34;100.00;96766.28;5031898;28;20050;-69
2023/01/16 13:56:00;;;;;;;12.30;6.22;;;;;;;2.32;100.00;96765.56;5049348;28;20037;-72
2023/01/16 13:58:46;;;;;;;6.30;3.85;;;;;;;2.79;100.00;96767.59;5035503;28;20083;-68
2023/01/16 14:01:37;;;;;;;11.50;6.45;;;;;;;2.70;100.00;96763.06;5050173;28;20094;-69
2023/01/16 14:04:23;;;;;;;14.43;7.72;;;;;;;2.42;100.00;96752.00;5053690;28;20063;-69
2023/01/16 14:10:58;;;;;;;10.20;6.10;;;;;;;2.32;100.00;96749.22;5060559;28;20044;-69
2023/01/16 14:13:43;;;;;;;12.15;6.57;;;;;;;2.14;100.00;96739.19;5065413;28;20040;-68
2023/01/16 14:16:37;;;;;;;11.32;6.50;;;;;;;2.25;100.00;96730.72;5070047;28;20481;-69
2023/01/16 14:19:22;;;;;;;11.10;7.00;;;;;;;2.22;100.00;96715.41;5074241;28;20055;-70
2023/01/16 14:25:06;;;;;;;10.82;6.82;;;;;;;2.15;100.00;96714.19;5058864;28;20155;-69
2023/01/16 14:27:53;;;;;;;11.43;6.70;;;;;;;2.21;100.00;96698.25;5059580;28;20060;-69
2023/01/16 14:30:40;;;;;;;13.20;7.93;;;;;;;2.20;100.00;96694.84;5072133;28;20036;-69
2023/01/16 14:33:26;;;;;;;12.43;7.22;;;;;;;2.19;100.00;96684.59;5063585;28;20053;-69
2023/01/16 14:36:13;;;;;;;12.57;8.10;;;;;;;2.30;100.00;96679.53;5052111;28;20041;-68
2023/01/16 14:38:59;;;;;;;10.68;7.43;;;;;;;2.36;100.00;96674.88;5069840;28;20045;-68
2023/01/16 14:58:30;;;;;;;16.42;9.18;;;;;;;2.45;100.00;96638.88;5058737;28;19982;-68
2023/01/16 15:04:58;;;;;;;13.95;9.15;;;;;;;2.40;100.00;96628.03;5065248;28;20068;-69
2023/01/16 15:07:48;;;;;;;14.13;9.25;;;;;;;2.49;100.00;96633.50;5053992;28;20120;-71
2023/01/16 15:10:41;;;;;;;15.68;9.68;;;;;;;2.62;100.00;96636.91;5054642;28;20068;-69